createdAt,value
2023-04-29T00:00:20.033Z,1.20
2023-04-29T00:02:52.246Z,1.85
2023-04-29T00:05:25.106Z,1.58
2023-04-29T00:07:58.114Z,4.55
2023-04-29T00:10:30.558Z,7.05
2023-04-29T00:13:02.710Z,1.45
2023-04-29T00:15:35.367Z,5.43
2023-04-29T00:18:07.529Z,1.75
2023-04-29T00:20:40.272Z,3.13
2023-04-29T00:23:12.356Z,3.50
2023-04-29T00:25:44.829Z,1.40
2023-04-29T00:28:16.991Z,1.52
2023-04-29T00:30:49.399Z,1.20
2023-04-29T00:33:22.244Z,1.40
2023-04-29T00:35:54.342Z,2.05
2023-04-29T00:38:27.022Z,1.15
2023-04-29T00:40:59.304Z,1.08
2023-04-29T00:43:31.497Z,1.25
2023-04-29T00:46:04.234Z,1.33
2023-04-29T00:48:36.407Z,3.00
2023-04-29T00:51:09.305Z,3.08
2023-04-29T00:53:41.957Z,1.73
2023-04-29T00:56:15.175Z,4.60
2023-04-29T00:58:50.387Z,3.72
2023-04-29T01:01:23.555Z,1.20
2023-04-29T01:03:56.692Z,2.72
2023-04-29T01:07:03.691Z,1.52
2023-04-29T01:10:09.924Z,1.50
2023-04-29T01:12:47.036Z,1.13
2023-04-29T01:15:28.217Z,1.10
2023-04-29T01:18:05.339Z,3.35
2023-04-29T01:20:39.133Z,1.10
2023-04-29T01:23:11.333Z,1.80
2023-04-29T01:25:46.339Z,4.22
2023-04-29T01:28:49.741Z,2.00
2023-04-29T01:32:09.289Z,2.65
2023-04-29T01:35:16.845Z,1.45
2023-04-29T01:38:15.065Z,2.47
2023-04-29T01:41:11.143Z,2.40
2023-04-29T01:43:46.847Z,2.28
2023-04-29T01:46:25.278Z,4.40
2023-04-29T01:49:01.288Z,5.05
2023-04-29T01:51:35.011Z,2.08
2023-04-29T01:54:07.348Z,3.80
2023-04-29T01:56:39.538Z,3.90
2023-04-29T01:59:30.219Z,4.00
2023-04-29T02:02:21.414Z,3.63
2023-04-29T02:05:02.554Z,4.80
2023-04-29T02:07:34.789Z,4.68
2023-04-29T02:10:07.804Z,5.28
2023-04-29T02:12:43.796Z,4.72
2023-04-29T02:15:16.319Z,6.60
2023-04-29T02:17:48.541Z,4.22
2023-04-29T02:20:21.382Z,5.47
2023-04-29T02:22:53.648Z,5.55
2023-04-29T02:25:25.891Z,4.35
2023-04-29T02:27:58.201Z,6.82
2023-04-29T02:30:30.812Z,4.00
2023-04-29T02:33:02.986Z,4.40
2023-04-29T02:35:35.422Z,4.45
2023-04-29T02:38:07.837Z,3.38
2023-04-29T02:40:44.242Z,4.30
2023-04-29T02:43:16.634Z,5.57
2023-04-29T02:45:50.634Z,4.38
2023-04-29T02:48:22.828Z,4.93
2023-04-29T02:51:13.406Z,4.25
2023-04-29T02:54:04.152Z,4.07
2023-04-29T02:56:36.356Z,3.53
2023-04-29T02:59:08.579Z,2.72
2023-04-29T03:01:41.612Z,2.83
2023-04-29T03:04:13.989Z,4.50
2023-04-29T03:06:46.359Z,4.30
2023-04-29T03:09:18.542Z,2.88
2023-04-29T03:11:53.423Z,3.63
2023-04-29T03:14:25.592Z,3.95
2023-04-29T03:16:58.130Z,3.72
2023-04-29T03:19:30.995Z,3.13
2023-04-29T03:22:03.844Z,3.30
2023-04-29T03:24:36.028Z,6.10
2023-04-29T03:27:08.388Z,5.35
2023-04-29T03:29:40.509Z,3.88
2023-04-29T03:32:12.893Z,3.35
2023-04-29T03:34:45.191Z,5.07
2023-04-29T03:37:39.811Z,3.42
2023-04-29T03:40:34.790Z,3.88
2023-04-29T03:43:09.343Z,4.47
2023-04-29T03:45:41.530Z,5.22
2023-04-29T03:48:14.669Z,4.53
2023-04-29T03:50:47.293Z,6.00
2023-04-29T03:53:19.510Z,3.80
2023-04-29T03:55:52.316Z,6.15
2023-04-29T03:58:24.829Z,8.05
2023-04-29T04:00:57.804Z,3.22
2023-04-29T04:03:38.057Z,3.25
2023-04-29T04:06:10.595Z,5.03
2023-04-29T04:08:43.236Z,5.30
2023-04-29T04:11:20.050Z,3.85
2023-04-29T04:14:01.226Z,3.55
2023-04-29T04:16:35.248Z,4.10
2023-04-29T04:19:07.440Z,3.15
2023-04-29T04:21:43.221Z,3.80
2023-04-29T04:24:16.198Z,6.80
2023-04-29T04:26:48.417Z,3.85
2023-04-29T04:29:24.442Z,4.65
2023-04-29T04:32:19.790Z,7.30
2023-04-29T04:34:52.544Z,5.32
2023-04-29T04:37:25.853Z,6.05
2023-04-29T04:40:01.823Z,6.25
2023-04-29T04:42:36.186Z,5.45
2023-04-29T04:45:11.526Z,4.90
2023-04-29T04:47:54.225Z,4.53
2023-04-29T04:50:29.618Z,5.10
2023-04-29T04:53:01.924Z,6.65
2023-04-29T04:55:50.128Z,7.70
2023-04-29T04:58:23.176Z,5.78
2023-04-29T05:00:55.391Z,6.13
2023-04-29T05:03:27.955Z,5.03
2023-04-29T05:06:01.017Z,5.17
2023-04-29T05:08:34.051Z,5.35
2023-04-29T05:11:16.814Z,6.40
2023-04-29T05:13:49.539Z,8.38
2023-04-29T05:16:22.270Z,5.00
2023-04-29T05:18:54.985Z,6.57
2023-04-29T05:21:31.674Z,7.60
2023-04-29T05:24:04.795Z,4.88
2023-04-29T05:26:37.073Z,6.43
2023-04-29T05:29:12.556Z,4.75
2023-04-29T05:31:53.137Z,5.88
2023-04-29T05:34:25.585Z,6.05
2023-04-29T05:36:58.072Z,6.47
2023-04-29T05:39:31.504Z,5.63
2023-04-29T05:42:13.529Z,4.85
2023-04-29T05:44:55.412Z,4.63
2023-04-29T05:47:27.609Z,5.40
2023-04-29T05:49:59.950Z,4.85
2023-04-29T05:52:33.287Z,3.78
2023-04-29T05:55:05.923Z,6.10
2023-04-29T05:57:38.113Z,4.90
2023-04-29T06:00:10.959Z,3.40
2023-04-29T06:02:57.999Z,5.75
2023-04-29T06:05:32.558Z,3.97
2023-04-29T06:08:15.466Z,3.95
2023-04-29T06:10:55.353Z,3.22
2023-04-29T06:13:28.066Z,4.68
2023-04-29T06:16:00.460Z,4.97
2023-04-29T06:18:38.361Z,3.97
2023-04-29T06:21:10.645Z,7.28
2023-04-29T06:23:42.844Z,6.85
2023-04-29T06:26:21.768Z,4.25
2023-04-29T06:28:55.058Z,4.53
2023-04-29T06:31:28.040Z,5.25
2023-04-29T06:34:04.835Z,4.63
2023-04-29T06:36:38.476Z,4.43
2023-04-29T06:39:34.071Z,4.15
2023-04-29T06:42:32.158Z,3.67
2023-04-29T06:45:23.901Z,5.00
2023-04-29T06:48:12.248Z,5.25
2023-04-29T06:50:51.662Z,6.60
2023-04-29T06:53:24.414Z,7.63
2023-04-29T06:55:56.966Z,6.30
2023-04-29T06:58:29.248Z,8.30
2023-04-29T07:01:03.749Z,8.57
2023-04-29T07:03:36.633Z,5.80
2023-04-29T07:06:09.000Z,9.45
2023-04-29T07:08:41.164Z,8.82
2023-04-29T07:11:13.549Z,7.45
2023-04-29T07:13:45.798Z,6.10
2023-04-29T07:16:20.295Z,6.68
2023-04-29T07:18:53.074Z,8.85
2023-04-29T07:21:25.509Z,7.40
2023-04-29T07:24:01.370Z,6.78
2023-04-29T07:26:34.350Z,6.03
2023-04-29T07:29:06.683Z,5.53
2023-04-29T07:31:38.825Z,5.47
2023-04-29T07:34:11.286Z,6.57
2023-04-29T07:36:44.045Z,5.50
2023-04-29T07:39:17.476Z,5.88
2023-04-29T07:41:53.122Z,6.78
2023-04-29T07:44:26.243Z,7.82
2023-04-29T07:46:58.354Z,5.75
2023-04-29T07:49:30.844Z,6.63
2023-04-29T07:52:04.183Z,8.00
2023-04-29T07:54:39.577Z,7.55
2023-04-29T07:57:12.106Z,8.45
2023-04-29T07:59:44.361Z,6.82
2023-04-29T08:02:16.931Z,5.00
2023-04-29T08:04:51.473Z,11.23
2023-04-29T08:07:24.400Z,6.70
2023-04-29T08:09:57.016Z,6.53
2023-04-29T08:12:29.355Z,6.78
2023-04-29T08:15:01.571Z,6.20
2023-04-29T08:17:33.900Z,5.03
2023-04-29T08:20:08.372Z,5.57
2023-04-29T08:22:41.641Z,5.85
2023-04-29T08:25:13.844Z,5.85
2023-04-29T08:27:46.168Z,6.57
2023-04-29T08:30:18.543Z,8.07
2023-04-29T08:32:51.152Z,6.57
2023-04-29T08:35:23.701Z,5.13
2023-04-29T08:37:55.914Z,5.95
2023-04-29T08:40:28.424Z,4.55
2023-04-29T08:43:01.408Z,4.57
2023-04-29T08:45:34.777Z,5.03
2023-04-29T08:48:11.001Z,8.00
2023-04-29T08:50:44.620Z,6.70
2023-04-29T08:53:16.852Z,4.15
2023-04-29T08:55:49.483Z,4.13
2023-04-29T08:58:22.467Z,8.85
2023-04-29T09:00:54.961Z,5.00
2023-04-29T09:04:01.641Z,6.93
2023-04-29T09:06:33.998Z,4.10
2023-04-29T09:09:07.352Z,3.22
2023-04-29T09:11:39.644Z,4.93
2023-04-29T09:14:12.893Z,3.70
2023-04-29T09:16:48.239Z,3.83
2023-04-29T09:19:34.287Z,3.65
2023-04-29T09:22:08.168Z,4.18
2023-04-29T09:24:40.308Z,4.10
2023-04-29T09:27:28.182Z,5.47
2023-04-29T09:30:03.023Z,5.10
2023-04-29T09:32:38.400Z,3.42
2023-04-29T09:35:26.087Z,3.95
2023-04-29T09:38:15.363Z,6.68
2023-04-29T09:40:58.980Z,5.53
2023-04-29T09:43:32.036Z,3.00
2023-04-29T09:46:04.504Z,3.60
2023-04-29T09:48:36.658Z,3.20
2023-04-29T09:51:09.258Z,4.13
2023-04-29T09:53:41.503Z,2.53
2023-04-29T09:56:13.622Z,2.63
2023-04-29T09:58:46.204Z,6.15
2023-04-29T10:01:21.857Z,3.07
2023-04-29T10:03:55.278Z,4.30
2023-04-29T10:06:29.081Z,2.75
2023-04-29T10:09:02.048Z,12.18
2023-04-29T10:11:36.503Z,2.33
2023-04-29T10:14:13.361Z,12.00
2023-04-29T10:16:49.559Z,3.42
2023-04-29T10:19:24.727Z,3.67
2023-04-29T10:22:00.893Z,4.30
2023-04-29T10:24:38.289Z,3.30
2023-04-29T10:27:15.276Z,3.40
2023-04-29T10:29:50.779Z,3.13
2023-04-29T10:32:25.255Z,3.63
2023-04-29T10:34:58.781Z,2.22
2023-04-29T10:37:31.481Z,2.03
2023-04-29T10:40:18.568Z,2.63
2023-04-29T10:42:54.683Z,1.88
2023-04-29T10:45:32.865Z,3.45
2023-04-29T10:48:05.062Z,5.28
2023-04-29T10:50:49.317Z,4.35
2023-04-29T10:53:22.272Z,3.13
2023-04-29T10:56:14.684Z,4.82
2023-04-29T10:58:47.341Z,4.15
2023-04-29T11:01:43.599Z,4.30
2023-04-29T11:04:16.785Z,4.18
2023-04-29T11:06:53.452Z,3.53
2023-04-29T11:09:28.080Z,5.28
2023-04-29T11:12:05.845Z,5.63
2023-04-29T11:14:49.672Z,7.90
2023-04-29T11:22:31.025Z,3.75
2023-04-29T11:27:40.559Z,4.55
2023-04-29T11:30:13.697Z,3.28
2023-04-29T11:32:46.368Z,4.10
2023-04-29T11:35:19.924Z,2.70
2023-04-29T11:40:27.602Z,5.45
2023-04-29T11:42:59.674Z,4.63
2023-04-29T11:45:35.598Z,4.78
2023-04-29T11:48:07.873Z,1.90
2023-04-29T11:50:42.504Z,2.20
2023-04-29T11:53:15.290Z,3.97
2023-04-29T11:55:47.690Z,3.95
2023-04-29T11:58:24.153Z,2.35
2023-04-29T12:00:59.388Z,5.50
2023-04-29T12:03:34.054Z,2.70
2023-04-29T12:06:08.440Z,2.58
2023-04-29T12:08:41.129Z,5.53
2023-04-29T12:11:14.108Z,2.17
2023-04-29T12:13:46.911Z,3.75
2023-04-29T12:16:19.150Z,1.73
2023-04-29T12:18:52.919Z,4.57
2023-04-29T12:21:26.379Z,2.20
2023-04-29T12:24:03.058Z,3.30
2023-04-29T12:26:35.827Z,1.77
2023-04-29T12:29:11.278Z,4.85
2023-04-29T12:31:47.545Z,2.00
2023-04-29T12:34:29.362Z,3.85
2023-04-29T12:37:02.431Z,3.10
2023-04-29T12:39:35.014Z,1.60
2023-04-29T12:42:07.147Z,1.48
2023-04-29T12:44:39.947Z,1.92
2023-04-29T12:47:13.744Z,2.45
2023-04-29T12:49:47.746Z,2.70
2023-04-29T12:52:20.001Z,1.65
2023-04-29T12:54:52.414Z,1.83
2023-04-29T12:57:26.631Z,3.53
2023-04-29T12:59:58.735Z,3.25
2023-04-29T13:02:31.244Z,9.13
2023-04-29T13:05:04.883Z,2.83
2023-04-29T13:07:37.591Z,3.88
2023-04-29T13:10:12.275Z,8.18
2023-04-29T13:12:45.296Z,2.45
2023-04-29T13:15:17.347Z,2.25
2023-04-29T13:17:49.963Z,1.83
2023-04-29T13:20:22.078Z,3.33
2023-04-29T13:22:54.602Z,3.10
2023-04-29T13:25:27.071Z,2.70
2023-04-29T13:27:59.133Z,4.72
2023-04-29T13:30:32.121Z,1.85
2023-04-29T13:33:11.737Z,1.67
2023-04-29T13:35:45.144Z,1.88
2023-04-29T13:38:17.895Z,3.57
2023-04-29T13:40:51.604Z,1.73
2023-04-29T13:43:33.010Z,3.72
2023-04-29T13:46:11.513Z,1.25
2023-04-29T13:49:17.072Z,1.48
2023-04-29T13:52:10.669Z,1.15
2023-04-29T13:54:57.501Z,1.75
2023-04-29T13:59:57.506Z,2.70
2023-04-29T14:05:03.280Z,1.55
2023-04-29T14:07:35.933Z,2.97
2023-04-29T14:10:08.255Z,1.55
2023-04-29T14:12:41.179Z,1.23
2023-04-29T14:15:13.379Z,1.35
2023-04-29T14:17:45.562Z,1.98
2023-04-29T14:20:17.859Z,2.35
2023-04-29T14:22:50.036Z,2.35
2023-04-29T14:25:22.359Z,1.27
2023-04-29T14:27:54.997Z,1.73
2023-04-29T14:30:27.489Z,1.98
2023-04-29T14:32:59.720Z,2.07
2023-04-29T14:35:32.051Z,0.95
2023-04-29T14:38:04.388Z,1.30
2023-04-29T14:40:37.103Z,1.48
2023-04-29T14:43:09.320Z,1.30
2023-04-29T14:45:41.886Z,1.60
2023-04-29T14:48:14.942Z,1.23
2023-04-29T14:50:47.267Z,1.90
2023-04-29T14:53:19.564Z,2.15
2023-04-29T14:55:51.671Z,1.80
2023-04-29T14:58:23.886Z,1.48
2023-04-29T15:00:56.600Z,2.47
2023-04-29T15:03:28.765Z,3.03
2023-04-29T15:06:04.543Z,2.53
2023-04-29T15:08:38.483Z,1.95
2023-04-29T15:11:10.727Z,1.48
2023-04-29T15:13:43.153Z,3.08
2023-04-29T15:16:15.766Z,2.00
2023-04-29T15:18:48.235Z,2.33
2023-04-29T15:21:21.181Z,0.95
2023-04-29T15:23:53.604Z,1.20
2023-04-29T15:26:27.427Z,1.15
2023-04-29T15:28:59.543Z,1.65
2023-04-29T15:31:32.419Z,1.10
2023-04-29T15:34:04.720Z,3.53
2023-04-29T15:36:36.800Z,5.30
2023-04-29T15:39:11.171Z,1.52
2023-04-29T15:41:43.325Z,1.20
2023-04-29T15:44:15.709Z,1.92
2023-04-29T15:46:48.832Z,1.48
2023-04-29T15:49:22.754Z,3.08
2023-04-29T15:51:56.350Z,1.50
2023-04-29T15:54:28.475Z,1.77
2023-04-29T15:57:01.387Z,1.73
2023-04-29T15:59:33.532Z,2.10
2023-04-29T16:02:11.049Z,2.63
2023-04-29T16:04:44.039Z,2.50
2023-04-29T16:07:17.200Z,1.85
2023-04-29T16:09:49.324Z,1.75
2023-04-29T16:12:21.734Z,1.75
2023-04-29T16:14:53.962Z,1.63
2023-04-29T16:17:26.662Z,3.45
2023-04-29T16:19:58.958Z,1.45
2023-04-29T16:22:31.627Z,1.90
2023-04-29T16:25:04.636Z,1.80
2023-04-29T16:27:37.219Z,1.75
2023-04-29T16:30:10.268Z,3.35
2023-04-29T16:32:43.250Z,3.72
2023-04-29T16:35:15.766Z,2.38
2023-04-29T16:37:47.943Z,2.40
2023-04-29T16:40:20.030Z,2.28
2023-04-29T16:42:53.645Z,6.80
2023-04-29T16:45:26.618Z,2.53
2023-04-29T16:47:58.871Z,1.70
2023-04-29T16:50:31.581Z,3.67
2023-04-29T16:53:04.566Z,4.20
2023-04-29T16:55:36.730Z,3.33
2023-04-29T16:58:09.569Z,1.63
2023-04-29T17:00:41.858Z,2.73
2023-04-29T17:03:15.146Z,2.00
2023-04-29T17:05:48.788Z,2.60
2023-04-29T17:10:54.081Z,3.13
2023-04-29T17:13:26.434Z,2.22
2023-04-29T17:15:58.673Z,2.35
2023-04-29T17:18:30.821Z,3.45
2023-04-29T17:21:03.225Z,6.60
2023-04-29T17:23:36.288Z,3.53
2023-04-29T17:26:08.749Z,3.78
2023-04-29T17:28:41.641Z,3.80
2023-04-29T17:31:15.693Z,4.75
2023-04-29T17:33:55.545Z,4.57
2023-04-29T17:36:27.808Z,4.38
2023-04-29T17:39:00.041Z,4.22
2023-04-29T17:41:33.248Z,4.10
2023-04-29T17:44:05.801Z,5.38
2023-04-29T17:46:38.986Z,3.95
2023-04-29T17:49:11.719Z,4.43
2023-04-29T17:51:43.981Z,4.80
2023-04-29T17:54:16.981Z,4.47
2023-04-29T17:56:49.217Z,4.22
2023-04-29T17:59:21.451Z,6.38
2023-04-29T18:01:53.566Z,5.03
2023-04-29T18:04:25.973Z,6.45
2023-04-29T18:06:58.690Z,3.40
2023-04-29T18:09:31.992Z,4.38
2023-04-29T18:12:04.633Z,5.18
2023-04-29T18:14:39.265Z,4.97
2023-04-29T18:17:11.321Z,5.75
2023-04-29T18:19:46.940Z,7.35
2023-04-29T18:22:19.351Z,12.15
2023-04-29T18:24:51.771Z,9.75
2023-04-29T18:27:24.203Z,7.13
2023-04-29T18:29:56.495Z,6.63
2023-04-29T18:32:29.030Z,9.00
2023-04-29T18:35:02.256Z,7.53
2023-04-29T18:37:34.875Z,6.57
2023-04-29T18:40:07.863Z,9.10
2023-04-29T18:42:40.142Z,5.75
2023-04-29T18:45:12.597Z,6.45
2023-04-29T18:47:45.104Z,10.27
2023-04-29T18:50:17.419Z,8.20
2023-04-29T18:52:49.504Z,6.22
2023-04-29T18:55:21.907Z,7.05
2023-04-29T18:57:54.985Z,7.30
2023-04-29T19:00:27.738Z,7.97
2023-04-29T19:03:00.045Z,10.37
2023-04-29T19:05:32.814Z,7.50
2023-04-29T19:08:05.238Z,9.75
2023-04-29T19:10:37.952Z,8.48
2023-04-29T19:13:10.957Z,9.15
2023-04-29T19:15:43.631Z,8.07
2023-04-29T19:18:15.715Z,6.90
2023-04-29T19:20:48.978Z,14.43
2023-04-29T19:23:21.681Z,8.75
2023-04-29T19:25:54.168Z,10.13
2023-04-29T19:28:26.440Z,9.48
2023-04-29T19:30:59.091Z,8.82
2023-04-29T19:33:31.450Z,9.47
2023-04-29T19:36:04.324Z,9.98
2023-04-29T19:38:37.073Z,9.43
2023-04-29T19:41:09.381Z,11.00
2023-04-29T19:43:41.523Z,10.20
2023-04-29T19:46:14.807Z,9.82
2023-04-29T19:48:46.922Z,10.73
2023-04-29T19:51:19.058Z,10.07
2023-04-29T19:53:51.886Z,11.65
2023-04-29T19:56:24.004Z,11.80
2023-04-29T19:58:57.069Z,9.77
2023-04-29T20:01:29.842Z,9.27
2023-04-29T20:04:01.982Z,10.18
2023-04-29T20:06:35.262Z,12.35
2023-04-29T20:09:09.248Z,10.18
2023-04-29T20:11:41.301Z,11.02
2023-04-29T20:14:13.439Z,7.90
2023-04-29T20:16:45.943Z,9.10
2023-04-29T20:19:18.106Z,10.73
2023-04-29T20:21:51.495Z,11.25
2023-04-29T20:24:24.159Z,13.05
2023-04-29T20:26:56.593Z,11.52
2023-04-29T20:29:30.078Z,10.60
2023-04-29T20:32:03.565Z,11.88
2023-04-29T20:34:36.766Z,11.13
2023-04-29T20:37:09.985Z,10.48
2023-04-29T20:39:43.279Z,8.82
2023-04-29T20:42:15.652Z,8.30
2023-04-29T20:44:47.920Z,9.30
2023-04-29T20:47:21.129Z,8.75
2023-04-29T20:49:53.460Z,10.05
2023-04-29T20:52:28.294Z,9.27
2023-04-29T20:55:01.199Z,12.68
2023-04-29T20:57:33.593Z,15.65
2023-04-29T21:00:06.286Z,13.63
2023-04-29T21:02:40.292Z,14.30
2023-04-29T21:05:12.414Z,9.98
2023-04-29T21:07:44.785Z,11.45
2023-04-29T21:10:18.064Z,12.68
2023-04-29T21:12:50.635Z,9.40
2023-04-29T21:15:22.734Z,8.50
2023-04-29T21:17:55.033Z,9.40
2023-04-29T21:20:27.477Z,10.48
2023-04-29T21:22:59.856Z,6.95
2023-04-29T21:25:32.411Z,7.43
2023-04-29T21:28:04.760Z,7.63
2023-04-29T21:30:37.025Z,8.32
2023-04-29T21:33:09.148Z,8.27
2023-04-29T21:35:43.474Z,6.55
2023-04-29T21:38:15.645Z,9.20
2023-04-29T21:40:48.490Z,7.88
2023-04-29T21:43:20.718Z,8.20
2023-04-29T21:45:54.443Z,8.70
2023-04-29T21:48:27.165Z,11.07
2023-04-29T21:51:00.173Z,8.80
2023-04-29T21:53:32.670Z,9.60
2023-04-29T21:56:06.337Z,7.00
2023-04-29T22:01:26.997Z,8.52
2023-04-29T22:03:59.387Z,9.02
2023-04-29T22:06:31.888Z,11.23
2023-04-29T22:09:04.727Z,9.35
2023-04-29T22:11:37.580Z,11.95
2023-04-29T22:14:09.737Z,7.00
2023-04-29T22:16:42.333Z,7.45
2023-04-29T22:19:14.640Z,9.33
2023-04-29T22:21:47.397Z,14.27
2023-04-29T22:24:19.696Z,17.90
2023-04-29T22:26:52.306Z,13.07
2023-04-29T22:29:24.414Z,14.07
2023-04-29T22:31:56.707Z,12.18
2023-04-29T22:34:29.389Z,15.00
2023-04-29T22:37:01.826Z,12.23
2023-04-29T22:39:33.988Z,12.55
2023-04-29T22:42:06.380Z,11.43
2023-04-29T22:44:38.593Z,10.57
2023-04-29T22:47:11.059Z,12.18
2023-04-29T22:49:43.650Z,10.13
2023-04-29T22:52:16.085Z,13.15
2023-04-29T22:54:48.636Z,10.93
2023-04-29T23:01:00.114Z,11.82
2023-04-29T23:03:32.584Z,10.45
2023-04-29T23:06:04.894Z,11.88
2023-04-29T23:08:37.198Z,11.75
2023-04-29T23:11:09.600Z,10.50
2023-04-29T23:13:41.843Z,13.52
2023-04-29T23:16:14.389Z,13.35
2023-04-29T23:18:46.532Z,15.80
2023-04-29T23:21:18.673Z,11.68
2023-04-29T23:23:51.281Z,9.57
2023-04-29T23:26:23.643Z,9.80
2023-04-29T23:28:56.112Z,10.38
2023-04-29T23:31:28.353Z,11.18
2023-04-29T23:34:01.097Z,10.32
2023-04-29T23:36:33.315Z,11.87
2023-04-29T23:39:05.633Z,10.70
2023-04-29T23:41:37.907Z,10.52
2023-04-29T23:44:10.029Z,14.40
2023-04-29T23:46:42.243Z,9.07
2023-04-29T23:49:14.654Z,11.13
2023-04-29T23:51:46.801Z,10.98
2023-04-29T23:54:18.945Z,13.38
2023-04-29T23:56:51.450Z,12.48
2023-04-29T23:59:23.827Z,10.25
